メインページ
METAR-TAF:

METAR-TAF

空港 :

成田国際空港

東京 / 成田国際空港, 日本

緯度: 35-46N, 経度: 140-23E, 海抜: 41m

現時点の気象観測

当レポートは16分前の08:00(UTC)に作成
の風 6kt、北東から東/南東の間で変化する
気温 15°C
湿度 100%
気圧 1011 hPa
視程: 3500m
高度300ftの雲はほとんどない
高度400ftの雲は散在している
高度600ftの千切れ雲あり
小雨, 靄

METAR: RJAA 240800Z 08006KT 050V110 3500 -RA BR FEW003 SCT004 BKN006 15/15 Q1011 NOSIG RMK 1ST003 3ST004 7ST006 A2987

時間: 17:16 (08:16 UTC)

予報

当レポートは3時間11分前の05:05(UTC)に作成
予報は24日の 06時(UTC)から 25日の 12時(UTC)まで有効
の風 12kt
視程: 6000m
高度800ftの雲はほとんどない
高度1200ftの千切れ雲あり
弱いにわか雨
24日の 06時(UTC)から 24日の 12時(UTC)まで一時的に
視程: 4000m
高度400ftの雲はほとんどない
高度800ftの千切れ雲あり
弱いにわか雨, 靄
24日の 12時(UTC)から 24日の 15時(UTC)まで一時的に
視程: 2000m
高度200ftの雲はほとんどない
高度500ftの千切れ雲あり
にわか雨, 靄
24日の 15時(UTC)から 24日の 17時(UTC)まで徐々に
西/北西の風 6kt
24日の 15時(UTC)から 24日の 21時(UTC)まで一時的に
視程: 2000m
高度200ftの雲はほとんどない
高度500ftの千切れ雲あり
25日の 03時(UTC)から 25日の 06時(UTC)まで徐々に
南東の風 10kt

TAF: RJAA 240505Z 2406/2512 10012KT 6000 -SHRA FEW008 BKN012 TEMPO 2406/2412 4000 -SHRA BR FEW004 BKN008 TEMPO 2412/2415 2000 SHRA BR FEW002 BKN005 BECMG 2415/2417 30006KT TEMPO 2415/2421 2000 BR FEW002 BKN005 BECMG 2503/2506 14010KT

4,000以上の空港の気象観測と天気予報(METAR報とTAF報)

利用可能な観測所は地図上に黄色い丸と赤い丸で示す。

丸の上にカーソルを重ねると観測所名を参照できる。

次にクリックすると気象観測と天気予報を参照できる。

マップの切り替え:黒色「×」印の緑ボタンをクリックして拡大、「-」印の緑ボタンをクリックして縮小、緑色の三角印をクリックして隣りの地図に切り替え


METAR-TAF: